createdAt,value
2022-11-05T00:00:36.088Z,75.13
2022-11-05T00:03:21.783Z,76.78
2022-11-05T00:06:10.655Z,75.18
2022-11-05T00:08:57.792Z,75.68
2022-11-05T00:11:44.619Z,75.01
2022-11-05T00:14:29.956Z,75.50
2022-11-05T00:16:56.758Z,74.30
2022-11-05T00:19:23.426Z,73.27
2022-11-05T00:22:12.046Z,73.05
2022-11-05T00:24:57.152Z,70.54
2022-11-05T00:27:23.922Z,70.40
2022-11-05T00:29:50.663Z,72.08
2022-11-05T00:32:17.466Z,72.88
2022-11-05T00:34:44.619Z,72.73
2022-11-05T00:37:11.334Z,74.15
2022-11-05T00:39:38.353Z,73.59
2022-11-05T00:42:23.668Z,72.91
2022-11-05T00:45:01.024Z,71.65
2022-11-05T00:47:47.131Z,73.83
2022-11-05T00:50:14.778Z,73.32
2022-11-05T00:52:57.092Z,71.98
2022-11-05T00:55:28.596Z,71.23
2022-11-05T00:57:57.532Z,72.94
2022-11-05T01:00:28.055Z,74.48
2022-11-05T01:02:59.202Z,74.99
2022-11-05T01:05:26.444Z,75.60
2022-11-05T01:07:53.347Z,75.04
2022-11-05T01:10:21.473Z,75.81
2022-11-05T01:12:48.633Z,76.02
2022-11-05T01:15:17.061Z,75.77
2022-11-05T01:17:46.914Z,76.00
2022-11-05T01:20:14.932Z,76.61
2022-11-05T01:22:41.585Z,76.88
2022-11-05T01:25:11.224Z,77.24
2022-11-05T01:27:38.741Z,76.84
2022-11-05T01:30:08.155Z,76.82
2022-11-05T01:32:37.031Z,77.29
2022-11-05T01:35:06.360Z,77.49
2022-11-05T01:37:35.151Z,78.40
2022-11-05T01:40:02.506Z,77.14
2022-11-05T01:42:32.741Z,76.95
2022-11-05T01:45:01.207Z,77.31
2022-11-05T01:48:06.711Z,76.51
2022-11-05T01:50:43.274Z,77.17
2022-11-05T01:53:21.792Z,77.94
2022-11-05T01:56:23.683Z,76.96
2022-11-05T01:59:03.453Z,77.13
2022-11-05T02:01:30.384Z,78.41
2022-11-05T02:04:02.841Z,78.05
2022-11-05T02:06:32.620Z,77.85
2022-11-05T02:09:08.874Z,79.04
2022-11-05T02:11:35.664Z,79.23
2022-11-05T02:14:02.693Z,78.28
2022-11-05T02:16:35.446Z,76.53
2022-11-05T02:19:41.002Z,77.23
2022-11-05T02:22:57.231Z,78.03
2022-11-05T02:26:04.100Z,76.28
2022-11-05T02:28:51.932Z,75.28
2022-11-05T02:31:35.026Z,73.89
2022-11-05T02:34:29.227Z,73.94
2022-11-05T02:37:34.443Z,72.58
2022-11-05T02:40:16.797Z,72.58
2022-11-05T02:42:58.614Z,69.44
2022-11-05T02:45:40.304Z,69.16
2022-11-05T02:49:05.775Z,68.16
2022-11-05T02:51:39.496Z,70.45
2022-11-05T02:54:25.201Z,71.04
2022-11-05T02:56:54.941Z,70.95
2022-11-05T02:59:21.662Z,72.55
2022-11-05T03:01:50.397Z,72.96
2022-11-05T03:04:21.334Z,74.79
2022-11-05T03:07:39.415Z,77.11
2022-11-05T03:10:25.323Z,77.52
2022-11-05T03:13:16.877Z,78.10
2022-11-05T03:15:58.293Z,78.83
2022-11-05T03:18:58.475Z,78.07
2022-11-05T03:21:36.058Z,74.99
2022-11-05T03:24:19.028Z,77.81
2022-11-05T03:27:03.972Z,79.23
2022-11-05T03:29:38.439Z,79.44
2022-11-05T03:32:08.089Z,80.17
2022-11-05T03:34:52.986Z,79.82
2022-11-05T03:37:21.482Z,79.88
2022-11-05T03:39:55.946Z,79.48
2022-11-05T03:42:28.770Z,79.69
2022-11-05T03:45:00.654Z,78.65
2022-11-05T03:47:38.334Z,78.89
2022-11-05T03:50:09.874Z,76.44
2022-11-05T03:52:53.741Z,75.97
2022-11-05T03:55:31.136Z,74.26
2022-11-05T03:57:59.058Z,72.43
2022-11-05T04:00:25.957Z,72.40
2022-11-05T04:02:52.834Z,71.72
2022-11-05T04:05:19.781Z,71.89
2022-11-05T04:08:07.673Z,69.79
2022-11-05T04:10:57.132Z,70.80
2022-11-05T04:13:26.723Z,71.28
2022-11-05T04:16:14.919Z,72.96
2022-11-05T04:18:43.060Z,71.23
2022-11-05T04:21:30.180Z,70.34
2022-11-05T04:24:09.919Z,70.28
2022-11-05T04:26:43.949Z,69.93
2022-11-05T04:29:29.668Z,69.78
2022-11-05T04:31:57.257Z,70.22
2022-11-05T04:34:24.097Z,72.72
2022-11-05T04:36:52.144Z,69.67
2022-11-05T04:39:20.520Z,70.99
2022-11-05T04:41:50.222Z,71.00
2022-11-05T04:44:17.220Z,71.37
2022-11-05T04:46:44.380Z,69.95
2022-11-05T04:49:11.089Z,67.07
2022-11-05T04:51:37.792Z,70.19
2022-11-05T04:54:04.617Z,68.63
2022-11-05T04:56:31.552Z,69.29
2022-11-05T04:58:58.326Z,71.22
2022-11-05T05:01:25.744Z,70.94
2022-11-05T05:03:54.291Z,69.41
2022-11-05T05:06:22.514Z,69.71
2022-11-05T05:08:51.431Z,69.28
2022-11-05T05:11:21.520Z,69.73
2022-11-05T05:13:49.900Z,66.51
2022-11-05T05:16:23.163Z,66.79
2022-11-05T05:18:51.046Z,68.48
2022-11-05T05:21:38.550Z,67.79
2022-11-05T05:24:15.866Z,68.67
2022-11-05T05:26:50.926Z,69.47
2022-11-05T05:29:18.904Z,71.83
2022-11-05T05:31:45.681Z,70.50
2022-11-05T05:34:14.006Z,72.36
2022-11-05T05:36:40.752Z,74.57
2022-11-05T05:39:11.037Z,72.48
2022-11-05T05:41:38.463Z,73.46
2022-11-05T05:44:06.741Z,72.78
2022-11-05T05:46:33.836Z,72.07
2022-11-05T05:49:00.821Z,70.38
2022-11-05T05:51:27.723Z,70.52
2022-11-05T05:53:55.194Z,70.38
2022-11-05T05:56:22.152Z,71.39
2022-11-05T05:58:48.927Z,70.38
2022-11-05T06:01:19.695Z,70.46
2022-11-05T06:03:48.476Z,71.47
2022-11-05T06:06:21.104Z,70.60
2022-11-05T06:08:48.882Z,70.76
2022-11-05T06:11:15.766Z,70.32
2022-11-05T06:13:42.657Z,73.13
2022-11-05T06:16:10.431Z,75.75
2022-11-05T06:18:37.945Z,73.68
2022-11-05T06:21:08.059Z,70.85
2022-11-05T06:23:37.058Z,67.84
2022-11-05T06:26:07.450Z,68.25
2022-11-05T06:28:34.493Z,68.32
2022-11-05T06:31:01.825Z,67.07
2022-11-05T06:33:29.288Z,70.29
2022-11-05T06:35:59.739Z,67.02
2022-11-05T06:38:26.602Z,64.60
2022-11-05T06:40:53.279Z,67.18
2022-11-05T06:43:20.195Z,68.49
2022-11-05T06:45:46.903Z,68.46
2022-11-05T06:48:13.622Z,69.50
2022-11-05T06:50:45.214Z,65.69
2022-11-05T06:53:12.945Z,64.14
2022-11-05T06:55:40.272Z,62.84
2022-11-05T06:58:07.390Z,63.97
2022-11-05T07:00:34.369Z,67.03
2022-11-05T07:03:10.467Z,65.41
2022-11-05T07:05:42.986Z,63.72
2022-11-05T07:08:09.846Z,67.15
2022-11-05T07:10:36.534Z,70.06
2022-11-05T07:13:07.793Z,67.52
2022-11-05T07:15:36.485Z,69.14
2022-11-05T07:18:03.925Z,69.85
2022-11-05T07:20:33.933Z,70.75
2022-11-05T07:23:11.341Z,66.68
2022-11-05T07:25:39.118Z,67.70
2022-11-05T07:28:06.414Z,66.25
2022-11-05T07:30:34.612Z,67.32
2022-11-05T07:33:02.414Z,64.37
2022-11-05T07:35:29.397Z,62.93
2022-11-05T07:37:56.410Z,63.11
2022-11-05T07:40:26.679Z,61.35
2022-11-05T07:42:59.654Z,60.11
2022-11-05T07:45:29.349Z,59.42
2022-11-05T07:48:02.449Z,63.08
2022-11-05T07:50:32.481Z,64.78
2022-11-05T07:53:09.880Z,63.23
2022-11-05T07:55:40.302Z,65.37
2022-11-05T07:58:07.355Z,63.74
2022-11-05T08:00:34.485Z,66.23
2022-11-05T08:03:18.764Z,68.60
2022-11-05T08:05:47.670Z,71.87
2022-11-05T08:08:17.577Z,71.74
2022-11-05T08:10:44.875Z,71.22
2022-11-05T08:13:15.062Z,71.45
2022-11-05T08:15:43.031Z,70.89
2022-11-05T08:18:17.959Z,70.21
2022-11-05T08:20:46.735Z,71.28
2022-11-05T08:23:14.407Z,72.72
2022-11-05T08:25:41.951Z,71.02
2022-11-05T08:28:12.801Z,68.28
2022-11-05T08:30:40.232Z,67.85
2022-11-05T08:33:11.819Z,70.97
2022-11-05T08:35:40.011Z,68.90
2022-11-05T08:38:10.460Z,68.62
2022-11-05T08:40:37.963Z,67.18
2022-11-05T08:43:07.592Z,65.38
2022-11-05T08:45:38.355Z,64.78
2022-11-05T08:48:16.746Z,63.59
2022-11-05T08:50:45.553Z,63.27
2022-11-05T08:53:13.476Z,65.49
2022-11-05T08:55:40.765Z,68.00
2022-11-05T08:58:17.716Z,66.12
2022-11-05T09:00:49.800Z,66.29
2022-11-05T09:03:17.818Z,65.58
2022-11-05T09:05:44.808Z,64.93
2022-11-05T09:08:15.098Z,61.15
2022-11-05T09:10:42.973Z,60.35
2022-11-05T09:13:16.590Z,58.67
2022-11-05T09:15:46.597Z,58.90
2022-11-05T09:18:14.900Z,59.83
2022-11-05T09:20:42.931Z,61.63
2022-11-05T09:23:12.110Z,61.16
2022-11-05T09:25:39.166Z,58.99
2022-11-05T09:28:21.473Z,60.15
2022-11-05T09:30:52.116Z,61.94
2022-11-05T09:33:22.816Z,62.31
2022-11-05T09:35:51.647Z,60.02
2022-11-05T09:38:18.542Z,58.36
2022-11-05T09:41:06.133Z,57.54
2022-11-05T09:43:40.766Z,55.75
2022-11-05T09:46:26.644Z,56.01
2022-11-05T09:49:07.804Z,57.74
2022-11-05T09:51:36.699Z,58.73
2022-11-05T09:54:05.475Z,56.91
2022-11-05T09:56:37.144Z,56.63
2022-11-05T09:59:19.529Z,54.22
2022-11-05T10:01:47.816Z,55.69
2022-11-05T10:04:26.924Z,54.11
2022-11-05T10:07:05.315Z,54.02
2022-11-05T10:09:45.285Z,53.21
2022-11-05T10:12:46.791Z,51.88
2022-11-05T10:15:27.029Z,50.33
2022-11-05T10:18:24.530Z,51.08
2022-11-05T10:20:51.361Z,51.66
2022-11-05T10:23:21.736Z,51.10
2022-11-05T10:26:08.019Z,50.23
2022-11-05T10:28:36.308Z,50.69
2022-11-05T10:31:14.040Z,48.59
2022-11-05T10:33:47.937Z,51.68
2022-11-05T10:36:36.544Z,54.20
2022-11-05T10:39:19.551Z,56.21
2022-11-05T10:42:32.293Z,55.98
2022-11-05T10:45:13.943Z,55.88
2022-11-05T10:48:16.581Z,57.16
2022-11-05T10:50:44.577Z,55.63
2022-11-05T10:53:15.235Z,56.75
2022-11-05T10:55:46.631Z,54.13
2022-11-05T10:58:13.226Z,53.92
2022-11-05T11:00:40.736Z,55.69
2022-11-05T11:03:29.978Z,55.79
2022-11-05T11:06:07.622Z,56.95
2022-11-05T11:08:36.745Z,57.45
2022-11-05T11:11:10.112Z,56.48
2022-11-05T11:14:02.560Z,54.89
2022-11-05T11:16:37.685Z,54.48
2022-11-05T11:19:21.741Z,52.96
2022-11-05T11:22:12.632Z,52.70
2022-11-05T11:24:53.783Z,53.31
2022-11-05T11:27:34.176Z,51.40
2022-11-05T11:30:03.881Z,52.48
2022-11-05T11:32:39.830Z,53.22
2022-11-05T11:35:18.954Z,51.95
2022-11-05T11:37:46.709Z,50.77
2022-11-05T11:40:19.675Z,50.91
2022-11-05T11:42:52.367Z,52.86
2022-11-05T11:45:28.685Z,52.04
2022-11-05T11:47:57.822Z,52.14
2022-11-05T11:50:43.686Z,52.88
2022-11-05T11:53:26.979Z,52.51
2022-11-05T11:56:13.908Z,52.24
2022-11-05T11:58:55.899Z,51.77
2022-11-05T12:01:37.799Z,51.82
2022-11-05T12:04:16.874Z,50.15
2022-11-05T12:06:55.552Z,54.36
2022-11-05T12:09:57.840Z,53.27
2022-11-05T12:12:51.526Z,52.61
2022-11-05T12:15:59.597Z,53.02
2022-11-05T12:18:47.669Z,51.78
2022-11-05T12:21:53.000Z,51.97
2022-11-05T12:25:08.175Z,51.60
2022-11-05T12:28:02.423Z,51.28
2022-11-05T12:30:56.858Z,50.48
2022-11-05T12:34:08.261Z,52.42
2022-11-05T12:37:12.796Z,50.96
2022-11-05T12:40:09.398Z,49.16
2022-11-05T12:43:11.913Z,50.38
2022-11-05T12:46:05.540Z,50.71
2022-11-05T12:49:02.386Z,49.08
2022-11-05T12:51:53.855Z,48.09
2022-11-05T12:54:35.557Z,49.12
2022-11-05T12:57:04.071Z,50.68
2022-11-05T12:59:49.009Z,52.04
2022-11-05T13:02:46.355Z,50.76
2022-11-05T13:05:18.778Z,50.73
2022-11-05T13:07:59.655Z,52.15
2022-11-05T13:10:54.669Z,50.71
2022-11-05T13:13:33.735Z,50.32
2022-11-05T13:16:16.901Z,51.50
2022-11-05T13:18:52.424Z,50.90
2022-11-05T13:21:24.124Z,49.84
2022-11-05T13:24:36.210Z,49.82
2022-11-05T13:27:15.792Z,49.52
2022-11-05T13:29:53.041Z,49.31
2022-11-05T13:32:28.050Z,50.24
2022-11-05T13:35:02.153Z,48.69
2022-11-05T13:37:53.572Z,48.60
2022-11-05T13:40:29.143Z,50.13
2022-11-05T13:43:14.662Z,50.40
2022-11-05T13:46:06.411Z,51.62
2022-11-05T13:49:18.691Z,52.78
2022-11-05T13:51:52.512Z,51.25
2022-11-05T13:54:50.028Z,52.37
2022-11-05T13:57:53.780Z,51.83
2022-11-05T14:00:24.347Z,53.25
2022-11-05T14:03:05.805Z,53.11
2022-11-05T14:05:40.104Z,54.50
2022-11-05T14:08:19.989Z,53.65
2022-11-05T14:11:06.579Z,52.09
2022-11-05T14:13:43.847Z,53.74
2022-11-05T14:16:19.849Z,53.04
2022-11-05T14:19:13.838Z,50.55
2022-11-05T14:21:57.192Z,48.74
2022-11-05T14:24:27.003Z,49.27
2022-11-05T14:27:02.501Z,49.96
2022-11-05T14:29:46.979Z,49.14
2022-11-05T14:32:19.898Z,50.81
2022-11-05T14:35:17.672Z,50.03
2022-11-05T14:37:59.155Z,50.47
2022-11-05T14:40:38.088Z,50.43
2022-11-05T14:43:14.232Z,49.10
2022-11-05T14:46:08.300Z,51.40
2022-11-05T14:48:41.253Z,50.19
2022-11-05T14:51:31.749Z,49.12
2022-11-05T14:54:05.508Z,49.32
2022-11-05T14:57:02.541Z,52.20
2022-11-05T14:59:31.304Z,51.15
2022-11-05T15:02:00.740Z,51.66
2022-11-05T15:04:36.151Z,50.89
2022-11-05T15:07:02.930Z,51.25
2022-11-05T15:09:44.726Z,51.64
2022-11-05T15:12:24.226Z,52.50
2022-11-05T15:14:59.561Z,53.47
2022-11-05T15:17:51.166Z,53.67
2022-11-05T15:20:23.874Z,52.74
2022-11-05T15:23:00.479Z,51.76
2022-11-05T15:25:54.802Z,51.91
2022-11-05T15:28:38.491Z,52.28
2022-11-05T15:31:21.130Z,51.80
2022-11-05T15:33:48.201Z,51.25
2022-11-05T15:36:23.572Z,50.65
2022-11-05T15:39:15.067Z,51.43
2022-11-05T15:41:38.343Z,50.16
2022-11-05T15:44:05.151Z,51.58
2022-11-05T15:46:32.094Z,53.14
2022-11-05T15:49:06.747Z,54.13
2022-11-05T15:51:35.518Z,55.11
2022-11-05T15:56:56.605Z,55.70
2022-11-05T15:59:26.267Z,56.95
2022-11-05T16:02:31.919Z,53.26
2022-11-05T16:05:00.202Z,54.44
2022-11-05T16:07:28.188Z,54.97
2022-11-05T16:10:00.549Z,52.25
2022-11-05T16:12:36.710Z,50.82
2022-11-05T16:15:20.539Z,52.38
2022-11-05T16:17:59.650Z,51.32
2022-11-05T16:20:35.740Z,49.04
2022-11-05T16:23:23.567Z,47.96
2022-11-05T16:25:51.089Z,48.34
2022-11-05T16:28:29.248Z,49.26
2022-11-05T16:31:04.620Z,48.54
2022-11-05T16:33:44.727Z,48.21
2022-11-05T16:36:12.047Z,47.78
2022-11-05T16:38:38.923Z,47.72
2022-11-05T16:41:05.850Z,47.49
2022-11-05T16:43:33.571Z,47.72
2022-11-05T16:46:01.700Z,48.04
2022-11-05T16:48:28.759Z,48.13
2022-11-05T16:50:55.570Z,47.96
2022-11-05T16:53:22.379Z,49.29
2022-11-05T16:55:49.778Z,48.35
2022-11-05T16:58:25.831Z,49.55
2022-11-05T17:01:07.788Z,48.99
2022-11-05T17:03:34.644Z,48.25
2022-11-05T17:06:01.489Z,47.43
2022-11-05T17:08:29.537Z,46.97
2022-11-05T17:10:56.382Z,47.34
2022-11-05T17:13:23.177Z,51.40
2022-11-05T17:15:51.167Z,50.96
2022-11-05T17:18:19.332Z,51.17
2022-11-05T17:20:53.142Z,51.94
2022-11-05T17:23:22.986Z,50.41
2022-11-05T17:25:54.432Z,51.08
2022-11-05T17:28:22.065Z,50.77
2022-11-05T17:30:52.762Z,51.56
2022-11-05T17:33:22.629Z,51.97
2022-11-05T17:35:51.702Z,50.45
2022-11-05T17:38:19.194Z,50.38
2022-11-05T17:40:46.125Z,49.65
2022-11-05T17:43:13.175Z,48.79
2022-11-05T17:45:57.545Z,49.41
2022-11-05T17:48:26.848Z,49.19
2022-11-05T17:50:53.537Z,49.02
2022-11-05T17:53:20.557Z,48.46
2022-11-05T17:55:48.215Z,48.47
2022-11-05T17:58:15.600Z,49.23
2022-11-05T18:00:44.187Z,48.21
2022-11-05T18:03:12.847Z,47.66
2022-11-05T18:05:41.204Z,48.35
2022-11-05T18:08:09.516Z,48.11
2022-11-05T18:10:37.888Z,48.75
2022-11-05T18:13:05.504Z,48.79
2022-11-05T18:15:32.533Z,50.03
2022-11-05T18:17:59.237Z,49.73
2022-11-05T18:20:26.009Z,49.80
2022-11-05T18:22:52.894Z,49.57
2022-11-05T18:25:19.726Z,49.18
2022-11-05T18:27:46.505Z,49.01
2022-11-05T18:30:15.460Z,49.45
2022-11-05T18:32:44.483Z,49.48
2022-11-05T18:35:13.257Z,50.44
2022-11-05T18:37:40.685Z,51.84
2022-11-05T18:40:08.651Z,51.56
2022-11-05T18:42:35.445Z,50.94
2022-11-05T18:45:02.187Z,50.63
2022-11-05T18:47:29.038Z,50.14
2022-11-05T18:49:55.752Z,50.51
2022-11-05T18:52:22.875Z,51.95
2022-11-05T18:54:49.588Z,51.02
2022-11-05T18:57:16.283Z,50.11
2022-11-05T18:59:46.640Z,50.35
2022-11-05T19:02:14.669Z,51.12
2022-11-05T19:05:00.345Z,50.50
2022-11-05T19:07:28.925Z,51.82
2022-11-05T19:09:55.726Z,53.19
2022-11-05T19:12:22.450Z,52.98
2022-11-05T19:14:49.125Z,52.54
2022-11-05T19:17:15.841Z,52.69
2022-11-05T19:19:42.546Z,51.97
2022-11-05T19:22:10.230Z,51.38
2022-11-05T19:24:36.997Z,52.02
2022-11-05T19:27:04.123Z,51.83
2022-11-05T19:29:30.915Z,53.24
2022-11-05T19:31:57.675Z,53.46
2022-11-05T19:34:24.421Z,52.26
2022-11-05T19:36:51.178Z,52.13
2022-11-05T19:39:18.232Z,52.04
2022-11-05T19:41:44.899Z,52.51
2022-11-05T19:44:11.659Z,51.96
2022-11-05T19:46:38.692Z,51.75
2022-11-05T19:49:05.445Z,51.68
2022-11-05T19:51:33.023Z,52.27
2022-11-05T19:54:01.814Z,53.72
2022-11-05T19:56:32.570Z,54.38
2022-11-05T19:59:00.632Z,54.02
2022-11-05T20:01:29.114Z,53.44
2022-11-05T20:03:57.857Z,53.07
2022-11-05T20:06:31.792Z,52.32
2022-11-05T20:11:54.404Z,51.12
2022-11-05T20:14:21.918Z,51.11
2022-11-05T20:16:49.788Z,51.77
2022-11-05T20:19:19.624Z,51.71
2022-11-05T20:21:47.022Z,51.70
2022-11-05T20:24:23.698Z,52.16
2022-11-05T20:26:52.509Z,52.87
2022-11-05T20:29:19.300Z,53.24
2022-11-05T20:31:46.325Z,53.20
2022-11-05T20:34:13.111Z,52.94
2022-11-05T20:36:39.938Z,53.65
2022-11-05T20:39:06.988Z,54.56
2022-11-05T20:41:33.784Z,54.73
2022-11-05T20:44:00.468Z,54.26
2022-11-05T20:46:27.413Z,52.82
2022-11-05T20:48:54.439Z,53.08
2022-11-05T20:51:24.297Z,52.47
2022-11-05T20:53:59.825Z,53.13
2022-11-05T20:56:32.879Z,52.67
2022-11-05T20:59:00.469Z,53.56
2022-11-05T21:01:30.307Z,53.52
2022-11-05T21:03:57.800Z,53.06
2022-11-05T21:06:24.563Z,53.83
2022-11-05T21:08:52.460Z,53.44
2022-11-05T21:11:20.312Z,53.17
2022-11-05T21:13:47.700Z,52.81
2022-11-05T21:16:18.700Z,53.76
2022-11-05T21:18:46.516Z,53.35
2022-11-05T21:21:19.947Z,53.59
2022-11-05T21:23:47.302Z,53.57
2022-11-05T21:26:16.717Z,54.20
2022-11-05T21:28:43.905Z,54.02
2022-11-05T21:31:10.952Z,53.25
2022-11-05T21:33:38.076Z,53.18
2022-11-05T21:36:11.554Z,53.99
2022-11-05T21:38:39.437Z,54.62
2022-11-05T21:41:07.175Z,55.12
2022-11-05T21:43:34.524Z,54.17
2022-11-05T21:46:02.943Z,54.27
2022-11-05T21:48:30.545Z,54.84
2022-11-05T21:51:15.774Z,53.65
2022-11-05T21:54:01.174Z,53.60
2022-11-05T21:56:47.609Z,52.81
2022-11-05T21:59:38.980Z,52.25
2022-11-05T22:02:07.466Z,52.05
2022-11-05T22:04:37.850Z,51.79
2022-11-05T22:07:06.730Z,52.40
2022-11-05T22:09:34.122Z,52.07
2022-11-05T22:12:01.507Z,51.92
2022-11-05T22:14:28.433Z,51.32
2022-11-05T22:16:55.758Z,50.97
2022-11-05T22:19:23.358Z,51.61
2022-11-05T22:21:50.247Z,51.70
2022-11-05T22:24:17.712Z,51.16
2022-11-05T22:26:45.300Z,51.49
2022-11-05T22:29:12.863Z,51.53
2022-11-05T22:31:39.932Z,51.54
2022-11-05T22:34:07.566Z,51.28
2022-11-05T22:36:35.574Z,50.78
2022-11-05T22:39:02.712Z,50.44
2022-11-05T22:41:29.489Z,50.57
2022-11-05T22:43:56.773Z,50.96
2022-11-05T22:46:26.351Z,50.68
2022-11-05T22:48:53.955Z,50.34
2022-11-05T22:51:25.659Z,50.38
2022-11-05T22:53:54.708Z,51.49
2022-11-05T22:56:25.299Z,52.78
2022-11-05T22:58:52.372Z,52.26
2022-11-05T23:01:21.131Z,52.68
2022-11-05T23:03:50.148Z,53.89
2022-11-05T23:06:50.033Z,52.28
2022-11-05T23:09:42.882Z,51.80
2022-11-05T23:12:26.484Z,52.60
2022-11-05T23:14:55.387Z,52.31
2022-11-05T23:17:40.747Z,52.63
2022-11-05T23:20:35.077Z,51.95
2022-11-05T23:23:20.302Z,51.34
2022-11-05T23:25:47.414Z,51.32
2022-11-05T23:28:14.759Z,51.34
2022-11-05T23:31:04.260Z,51.52
2022-11-05T23:33:35.787Z,51.90
2022-11-05T23:36:38.240Z,51.60
2022-11-05T23:39:04.942Z,52.30
2022-11-05T23:41:50.433Z,52.50
2022-11-05T23:44:36.526Z,51.99
2022-11-05T23:47:21.896Z,52.43
2022-11-05T23:49:48.610Z,52.46
2022-11-05T23:52:15.261Z,52.17
2022-11-05T23:54:42.165Z,52.34
2022-11-05T23:57:08.885Z,52.33
2022-11-05T23:59:35.676Z,52.24
